createdAt,value
2023-03-02T12:04:26.016Z,4.20
2023-03-02T12:07:29.523Z,1.20
2023-03-02T12:10:37.297Z,1.47
2023-03-02T12:13:41.444Z,2.37
2023-03-02T12:16:45.898Z,3.07
2023-03-02T12:19:50.987Z,2.97
2023-03-02T12:22:54.827Z,3.93
2023-03-02T12:26:06.213Z,4.55
2023-03-02T12:29:24.533Z,4.18
2023-03-02T12:32:32.948Z,3.95
2023-03-02T12:35:39.505Z,4.05
2023-03-02T12:38:47.706Z,3.75
2023-03-02T12:42:09.519Z,4.05
2023-03-02T12:45:20.213Z,4.30
2023-03-02T12:48:26.801Z,5.45
2023-03-02T12:51:33.881Z,4.32
2023-03-02T12:54:37.606Z,4.78
2023-03-02T12:57:48.551Z,7.03
2023-03-02T13:00:52.757Z,5.57
2023-03-02T13:03:56.486Z,5.93
2023-03-02T13:07:03.929Z,5.63
2023-03-02T13:10:10.308Z,4.45
2023-03-02T13:13:24.854Z,4.82
2023-03-02T13:16:29.765Z,4.53
2023-03-02T13:19:37.130Z,4.32
2023-03-02T13:22:42.200Z,4.05
2023-03-02T13:26:05.422Z,4.38
2023-03-02T13:29:19.087Z,4.93
2023-03-02T13:32:26.427Z,5.68
2023-03-02T13:35:32.272Z,4.22
2023-03-02T13:38:40.131Z,4.82
2023-03-02T13:41:54.219Z,4.72
2023-03-02T13:44:57.954Z,4.55
2023-03-02T13:48:09.524Z,5.85
2023-03-02T13:51:17.639Z,5.00
2023-03-02T13:54:31.532Z,5.70
2023-03-02T13:57:41.599Z,5.38
2023-03-02T14:00:45.170Z,4.40
2023-03-02T14:03:59.707Z,5.50
2023-03-02T14:07:03.080Z,5.13
2023-03-02T14:10:08.146Z,5.40
2023-03-02T14:13:14.657Z,5.82
2023-03-02T14:16:18.686Z,5.18
2023-03-02T14:19:22.051Z,4.53
2023-03-02T14:22:29.463Z,5.97
2023-03-02T14:25:51.315Z,5.43
2023-03-02T14:29:05.459Z,5.53
2023-03-02T14:32:14.013Z,6.43
2023-03-02T14:35:29.342Z,4.95
2023-03-02T14:38:33.065Z,5.50
2023-03-02T14:41:52.973Z,5.68
2023-03-02T14:44:59.961Z,6.05
2023-03-02T14:48:06.887Z,5.60
2023-03-02T14:51:17.356Z,5.50
2023-03-02T14:54:20.952Z,5.97
2023-03-02T14:57:27.191Z,5.35
2023-03-02T15:00:30.689Z,5.13
2023-03-02T15:03:34.042Z,4.32
2023-03-02T15:06:39.390Z,4.55
2023-03-02T15:09:43.978Z,5.10
2023-03-02T15:12:48.910Z,5.00
2023-03-02T15:15:52.654Z,3.75
2023-03-02T15:18:58.717Z,3.83
2023-03-02T15:22:02.425Z,3.55
2023-03-02T15:25:06.033Z,4.22
2023-03-02T15:28:11.376Z,4.00
2023-03-02T15:31:15.947Z,4.00
2023-03-02T15:34:19.400Z,4.10
2023-03-02T15:37:22.925Z,4.30
2023-03-02T15:40:26.951Z,3.83
2023-03-02T15:43:31.743Z,4.55
2023-03-02T15:46:36.020Z,4.10
2023-03-02T15:49:39.645Z,4.00
2023-03-02T15:52:43.208Z,4.50
2023-03-02T15:55:50.514Z,4.70
2023-03-02T15:58:55.232Z,4.07
2023-03-02T16:01:59.683Z,4.38
2023-03-02T16:05:03.100Z,4.28
2023-03-02T16:08:06.950Z,3.70
2023-03-02T16:11:11.800Z,4.88
2023-03-02T16:14:16.661Z,3.80
2023-03-02T16:17:20.154Z,3.88
2023-03-02T16:20:23.425Z,3.75
2023-03-02T16:23:26.709Z,4.20
2023-03-02T16:26:30.423Z,3.58
2023-03-02T16:29:35.092Z,4.63
2023-03-02T16:32:38.606Z,4.47
2023-03-02T16:35:41.923Z,3.85
2023-03-02T16:38:45.471Z,3.72
2023-03-02T16:41:48.745Z,4.43
2023-03-02T16:44:53.641Z,4.45
2023-03-02T16:47:56.931Z,4.25
2023-03-02T16:51:00.265Z,4.43
2023-03-02T16:54:03.824Z,4.05
2023-03-02T16:57:08.254Z,4.03
2023-03-02T17:00:15.266Z,4.07
2023-03-02T17:03:19.123Z,4.88
2023-03-02T17:06:23.658Z,6.82
2023-03-02T17:09:27.802Z,4.93
2023-03-02T17:12:31.065Z,5.10
2023-03-02T17:15:35.810Z,4.75
2023-03-02T17:18:40.830Z,4.90
2023-03-02T17:21:45.640Z,5.32
2023-03-02T17:24:48.923Z,5.47
2023-03-02T17:27:52.326Z,4.97
2023-03-02T17:30:57.156Z,5.18
2023-03-02T17:34:00.568Z,4.88
2023-03-02T17:37:03.842Z,5.35
